sensor_id;sensor_type;location;lat;lon;timestamp;P1;durP1;ratioP1;P2;durP2;ratioP2
76357;SDS011;65185;21.060;105.826;2023-08-07T00:01:35;11.48;;;4.30;;
76357;SDS011;65185;21.060;105.826;2023-08-07T00:04:02;9.52;;;4.45;;
76357;SDS011;65185;21.060;105.826;2023-08-07T00:06:29;12.30;;;4.95;;
76357;SDS011;65185;21.060;105.826;2023-08-07T00:08:55;12.05;;;5.07;;
76357;SDS011;65185;21.060;105.826;2023-08-07T00:11:22;14.52;;;5.82;;
76357;SDS011;65185;21.060;105.826;2023-08-07T00:13:49;12.82;;;5.65;;
76357;SDS011;65185;21.060;105.826;2023-08-07T00:16:15;13.43;;;6.32;;
76357;SDS011;65185;21.060;105.826;2023-08-07T00:18:42;13.13;;;6.28;;
76357;SDS011;65185;21.060;105.826;2023-08-07T00:21:09;12.70;;;5.82;;
76357;SDS011;65185;21.060;105.826;2023-08-07T00:23:36;12.98;;;5.93;;
76357;SDS011;65185;21.060;105.826;2023-08-07T00:26:02;11.70;;;5.65;;
76357;SDS011;65185;21.060;105.826;2023-08-07T00:28:29;16.25;;;6.50;;
76357;SDS011;65185;21.060;105.826;2023-08-07T00:30:56;13.18;;;5.93;;
76357;SDS011;65185;21.060;105.826;2023-08-07T00:33:23;13.55;;;6.18;;
76357;SDS011;65185;21.060;105.826;2023-08-07T00:35:49;13.27;;;6.47;;
76357;SDS011;65185;21.060;105.826;2023-08-07T00:38:16;13.80;;;6.13;;
76357;SDS011;65185;21.060;105.826;2023-08-07T00:40:43;13.48;;;6.80;;
76357;SDS011;65185;21.060;105.826;2023-08-07T00:43:09;12.82;;;6.32;;
76357;SDS011;65185;21.060;105.826;2023-08-07T00:45:38;12.82;;;5.93;;
76357;SDS011;65185;21.060;105.826;2023-08-07T00:48:09;16.83;;;7.43;;
76357;SDS011;65185;21.060;105.826;2023-08-07T00:50:38;14.60;;;7.03;;
76357;SDS011;65185;21.060;105.826;2023-08-07T00:53:06;13.93;;;6.50;;
76357;SDS011;65185;21.060;105.826;2023-08-07T00:55:33;14.25;;;6.25;;
76357;SDS011;65185;21.060;105.826;2023-08-07T00:58:00;13.02;;;7.13;;
76357;SDS011;65185;21.060;105.826;2023-08-07T01:00:28;20.15;;;8.50;;
76357;SDS011;65185;21.060;105.826;2023-08-07T01:02:56;12.95;;;6.80;;
76357;SDS011;65185;21.060;105.826;2023-08-07T01:05:24;17.63;;;8.00;;
76357;SDS011;65185;21.060;105.826;2023-08-07T01:07:53;14.07;;;7.75;;
76357;SDS011;65185;21.060;105.826;2023-08-07T01:10:25;18.17;;;7.93;;
76357;SDS011;65185;21.060;105.826;2023-08-07T01:13:08;15.15;;;8.30;;
76357;SDS011;65185;21.060;105.826;2023-08-07T01:15:51;18.15;;;8.45;;
76357;SDS011;65185;21.060;105.826;2023-08-07T01:18:21;18.80;;;8.50;;
76357;SDS011;65185;21.060;105.826;2023-08-07T01:20:49;16.23;;;8.23;;
76357;SDS011;65185;21.060;105.826;2023-08-07T01:23:15;20.27;;;8.70;;
76357;SDS011;65185;21.060;105.826;2023-08-07T01:25:42;21.90;;;8.93;;
76357;SDS011;65185;21.060;105.826;2023-08-07T01:28:15;14.93;;;7.43;;
76357;SDS011;65185;21.060;105.826;2023-08-07T01:30:50;18.02;;;8.50;;
76357;SDS011;65185;21.060;105.826;2023-08-07T01:33:32;17.52;;;7.00;;
76357;SDS011;65185;21.060;105.826;2023-08-07T01:36:08;16.67;;;6.25;;
76357;SDS011;65185;21.060;105.826;2023-08-07T01:38:37;12.90;;;5.53;;
76357;SDS011;65185;21.060;105.826;2023-08-07T01:41:05;12.70;;;5.22;;
76357;SDS011;65185;21.060;105.826;2023-08-07T01:43:32;10.57;;;4.55;;
76357;SDS011;65185;21.060;105.826;2023-08-07T01:45:58;12.65;;;4.20;;
76357;SDS011;65185;21.060;105.826;2023-08-07T01:48:25;9.77;;;3.63;;
76357;SDS011;65185;21.060;105.826;2023-08-07T01:50:52;11.43;;;3.40;;
76357;SDS011;65185;21.060;105.826;2023-08-07T01:53:20;7.97;;;3.00;;
76357;SDS011;65185;21.060;105.826;2023-08-07T01:55:46;7.60;;;3.13;;
76357;SDS011;65185;21.060;105.826;2023-08-07T01:58:13;8.43;;;2.78;;
76357;SDS011;65185;21.060;105.826;2023-08-07T02:00:40;8.82;;;3.00;;
76357;SDS011;65185;21.060;105.826;2023-08-07T02:03:06;7.68;;;2.53;;
76357;SDS011;65185;21.060;105.826;2023-08-07T02:05:33;7.47;;;2.80;;
76357;SDS011;65185;21.060;105.826;2023-08-07T02:08:00;7.97;;;2.63;;
76357;SDS011;65185;21.060;105.826;2023-08-07T02:10:27;9.13;;;2.90;;
76357;SDS011;65185;21.060;105.826;2023-08-07T02:12:53;10.02;;;2.40;;
76357;SDS011;65185;21.060;105.826;2023-08-07T02:15:24;10.18;;;2.95;;
76357;SDS011;65185;21.060;105.826;2023-08-07T02:17:51;6.93;;;2.33;;
76357;SDS011;65185;21.060;105.826;2023-08-07T02:20:18;8.10;;;2.30;;
76357;SDS011;65185;21.060;105.826;2023-08-07T02:22:44;7.50;;;2.40;;
76357;SDS011;65185;21.060;105.826;2023-08-07T02:25:11;6.03;;;2.10;;
76357;SDS011;65185;21.060;105.826;2023-08-07T02:27:38;8.48;;;2.50;;
76357;SDS011;65185;21.060;105.826;2023-08-07T02:30:05;7.70;;;2.10;;
76357;SDS011;65185;21.060;105.826;2023-08-07T02:32:32;10.32;;;2.70;;
76357;SDS011;65185;21.060;105.826;2023-08-07T02:34:59;10.70;;;2.97;;
76357;SDS011;65185;21.060;105.826;2023-08-07T02:37:26;9.65;;;2.30;;
76357;SDS011;65185;21.060;105.826;2023-08-07T02:39:52;7.82;;;2.38;;
76357;SDS011;65185;21.060;105.826;2023-08-07T02:42:19;8.73;;;3.10;;
76357;SDS011;65185;21.060;105.826;2023-08-07T02:44:46;10.38;;;2.90;;
76357;SDS011;65185;21.060;105.826;2023-08-07T02:47:12;7.72;;;2.50;;
76357;SDS011;65185;21.060;105.826;2023-08-07T02:49:39;7.30;;;2.17;;
76357;SDS011;65185;21.060;105.826;2023-08-07T02:52:06;5.68;;;1.85;;
76357;SDS011;65185;21.060;105.826;2023-08-07T02:54:33;7.85;;;2.20;;
76357;SDS011;65185;21.060;105.826;2023-08-07T02:57:00;7.47;;;2.42;;
76357;SDS011;65185;21.060;105.826;2023-08-07T02:59:26;7.38;;;2.40;;
76357;SDS011;65185;21.060;105.826;2023-08-07T03:01:53;11.00;;;2.60;;
76357;SDS011;65185;21.060;105.826;2023-08-07T03:04:19;12.02;;;2.40;;
76357;SDS011;65185;21.060;105.826;2023-08-07T03:06:46;7.22;;;2.30;;
76357;SDS011;65185;21.060;105.826;2023-08-07T03:09:13;11.00;;;2.50;;
76357;SDS011;65185;21.060;105.826;2023-08-07T03:11:40;9.75;;;2.38;;
76357;SDS011;65185;21.060;105.826;2023-08-07T03:14:06;7.03;;;2.67;;
76357;SDS011;65185;21.060;105.826;2023-08-07T03:16:33;7.45;;;2.50;;
76357;SDS011;65185;21.060;105.826;2023-08-07T03:19:00;7.85;;;2.80;;
76357;SDS011;65185;21.060;105.826;2023-08-07T03:21:26;9.70;;;2.65;;
76357;SDS011;65185;21.060;105.826;2023-08-07T03:23:53;9.95;;;3.03;;
76357;SDS011;65185;21.060;105.826;2023-08-07T03:26:20;8.60;;;2.95;;
76357;SDS011;65185;21.060;105.826;2023-08-07T03:28:46;10.38;;;2.60;;
76357;SDS011;65185;21.060;105.826;2023-08-07T03:31:14;9.52;;;2.67;;
76357;SDS011;65185;21.060;105.826;2023-08-07T03:33:41;7.03;;;2.70;;
76357;SDS011;65185;21.060;105.826;2023-08-07T03:36:08;8.15;;;2.63;;
76357;SDS011;65185;21.060;105.826;2023-08-07T03:38:37;6.82;;;2.28;;
76357;SDS011;65185;21.060;105.826;2023-08-07T03:41:04;8.77;;;2.60;;
76357;SDS011;65185;21.060;105.826;2023-08-07T03:43:31;6.70;;;2.50;;
76357;SDS011;65185;21.060;105.826;2023-08-07T03:45:57;8.68;;;2.67;;
76357;SDS011;65185;21.060;105.826;2023-08-07T03:48:24;6.60;;;2.70;;
76357;SDS011;65185;21.060;105.826;2023-08-07T03:50:51;7.60;;;2.50;;
76357;SDS011;65185;21.060;105.826;2023-08-07T03:53:17;8.55;;;2.55;;
76357;SDS011;65185;21.060;105.826;2023-08-07T03:55:48;5.75;;;2.63;;
76357;SDS011;65185;21.060;105.826;2023-08-07T03:58:17;8.65;;;2.55;;
76357;SDS011;65185;21.060;105.826;2023-08-07T04:00:43;6.82;;;2.60;;
76357;SDS011;65185;21.060;105.826;2023-08-07T04:03:10;7.60;;;2.50;;
76357;SDS011;65185;21.060;105.826;2023-08-07T04:05:37;8.75;;;2.60;;
76357;SDS011;65185;21.060;105.826;2023-08-07T04:08:04;8.18;;;2.90;;
76357;SDS011;65185;21.060;105.826;2023-08-07T04:10:30;7.40;;;3.00;;
76357;SDS011;65185;21.060;105.826;2023-08-07T04:12:57;9.23;;;3.10;;
76357;SDS011;65185;21.060;105.826;2023-08-07T04:15:24;7.82;;;2.80;;
76357;SDS011;65185;21.060;105.826;2023-08-07T04:17:50;9.68;;;2.85;;
76357;SDS011;65185;21.060;105.826;2023-08-07T04:20:17;9.20;;;2.95;;
76357;SDS011;65185;21.060;105.826;2023-08-07T04:22:45;10.25;;;2.88;;
76357;SDS011;65185;21.060;105.826;2023-08-07T04:25:12;8.55;;;2.78;;
76357;SDS011;65185;21.060;105.826;2023-08-07T04:27:39;7.95;;;2.85;;
76357;SDS011;65185;21.060;105.826;2023-08-07T04:30:05;6.10;;;2.35;;
76357;SDS011;65185;21.060;105.826;2023-08-07T04:32:33;6.45;;;2.45;;
76357;SDS011;65185;21.060;105.826;2023-08-07T04:34:59;7.93;;;2.55;;
76357;SDS011;65185;21.060;105.826;2023-08-07T04:37:26;9.68;;;3.00;;
76357;SDS011;65185;21.060;105.826;2023-08-07T04:39:53;11.13;;;2.75;;
76357;SDS011;65185;21.060;105.826;2023-08-07T04:42:19;7.65;;;2.38;;
76357;SDS011;65185;21.060;105.826;2023-08-07T04:44:48;9.60;;;2.90;;
76357;SDS011;65185;21.060;105.826;2023-08-07T04:47:15;7.47;;;2.60;;
76357;SDS011;65185;21.060;105.826;2023-08-07T04:49:42;8.77;;;2.55;;
76357;SDS011;65185;21.060;105.826;2023-08-07T04:52:08;6.05;;;2.53;;
76357;SDS011;65185;21.060;105.826;2023-08-07T04:54:35;6.30;;;2.72;;
76357;SDS011;65185;21.060;105.826;2023-08-07T04:57:02;10.00;;;2.90;;
76357;SDS011;65185;21.060;105.826;2023-08-07T04:59:29;8.73;;;2.85;;
76357;SDS011;65185;21.060;105.826;2023-08-07T05:01:57;8.63;;;2.83;;
76357;SDS011;65185;21.060;105.826;2023-08-07T05:04:23;8.23;;;2.65;;
76357;SDS011;65185;21.060;105.826;2023-08-07T05:06:50;8.45;;;2.97;;
76357;SDS011;65185;21.060;105.826;2023-08-07T05:09:17;7.82;;;2.92;;
76357;SDS011;65185;21.060;105.826;2023-08-07T05:11:46;6.95;;;2.35;;
76357;SDS011;65185;21.060;105.826;2023-08-07T05:14:13;7.80;;;2.88;;
76357;SDS011;65185;21.060;105.826;2023-08-07T05:16:42;8.90;;;3.08;;
76357;SDS011;65185;21.060;105.826;2023-08-07T05:19:12;8.15;;;2.90;;
76357;SDS011;65185;21.060;105.826;2023-08-07T05:21:38;6.55;;;2.95;;
76357;SDS011;65185;21.060;105.826;2023-08-07T05:24:05;9.82;;;2.90;;
76357;SDS011;65185;21.060;105.826;2023-08-07T05:26:34;7.40;;;3.00;;
76357;SDS011;65185;21.060;105.826;2023-08-07T05:29:01;7.60;;;2.75;;
76357;SDS011;65185;21.060;105.826;2023-08-07T05:31:30;8.60;;;2.97;;
76357;SDS011;65185;21.060;105.826;2023-08-07T05:33:57;9.55;;;3.00;;
76357;SDS011;65185;21.060;105.826;2023-08-07T05:36:23;8.98;;;2.83;;
76357;SDS011;65185;21.060;105.826;2023-08-07T05:38:50;8.18;;;2.70;;
76357;SDS011;65185;21.060;105.826;2023-08-07T05:41:17;7.80;;;3.30;;
76357;SDS011;65185;21.060;105.826;2023-08-07T05:43:45;7.68;;;2.80;;
76357;SDS011;65185;21.060;105.826;2023-08-07T05:46:11;6.78;;;3.10;;
76357;SDS011;65185;21.060;105.826;2023-08-07T05:48:41;9.77;;;3.00;;
76357;SDS011;65185;21.060;105.826;2023-08-07T05:51:25;7.65;;;2.88;;
76357;SDS011;65185;21.060;105.826;2023-08-07T05:53:52;5.75;;;2.47;;
76357;SDS011;65185;21.060;105.826;2023-08-07T05:56:19;7.72;;;2.88;;
76357;SDS011;65185;21.060;105.826;2023-08-07T05:58:46;6.78;;;2.75;;
76357;SDS011;65185;21.060;105.826;2023-08-07T06:01:13;9.18;;;3.03;;
76357;SDS011;65185;21.060;105.826;2023-08-07T06:03:42;6.55;;;2.88;;
76357;SDS011;65185;21.060;105.826;2023-08-07T06:06:09;7.70;;;3.05;;
76357;SDS011;65185;21.060;105.826;2023-08-07T06:08:36;7.57;;;2.80;;
76357;SDS011;65185;21.060;105.826;2023-08-07T06:11:03;8.65;;;2.33;;
76357;SDS011;65185;21.060;105.826;2023-08-07T06:13:30;6.63;;;2.50;;
76357;SDS011;65185;21.060;105.826;2023-08-07T06:15:57;8.88;;;2.55;;
76357;SDS011;65185;21.060;105.826;2023-08-07T06:18:24;6.85;;;2.40;;
76357;SDS011;65185;21.060;105.826;2023-08-07T06:20:51;7.32;;;2.35;;
76357;SDS011;65185;21.060;105.826;2023-08-07T06:23:18;9.02;;;2.60;;
76357;SDS011;65185;21.060;105.826;2023-08-07T06:25:45;8.35;;;2.42;;
76357;SDS011;65185;21.060;105.826;2023-08-07T06:28:11;5.68;;;2.30;;
76357;SDS011;65185;21.060;105.826;2023-08-07T06:30:38;7.32;;;2.63;;
76357;SDS011;65185;21.060;105.826;2023-08-07T06:33:05;9.93;;;2.72;;
76357;SDS011;65185;21.060;105.826;2023-08-07T06:35:37;11.32;;;3.08;;
76357;SDS011;65185;21.060;105.826;2023-08-07T06:38:04;5.93;;;2.35;;
76357;SDS011;65185;21.060;105.826;2023-08-07T06:40:32;5.78;;;2.65;;
76357;SDS011;65185;21.060;105.826;2023-08-07T06:43:01;6.07;;;2.40;;
76357;SDS011;65185;21.060;105.826;2023-08-07T06:45:28;7.55;;;2.70;;
76357;SDS011;65185;21.060;105.826;2023-08-07T06:47:55;7.60;;;2.55;;
76357;SDS011;65185;21.060;105.826;2023-08-07T06:50:22;6.95;;;2.63;;
76357;SDS011;65185;21.060;105.826;2023-08-07T06:52:50;7.55;;;3.00;;
76357;SDS011;65185;21.060;105.826;2023-08-07T06:55:16;5.78;;;2.50;;
76357;SDS011;65185;21.060;105.826;2023-08-07T06:57:44;5.75;;;2.22;;
76357;SDS011;65185;21.060;105.826;2023-08-07T07:00:11;6.25;;;2.53;;
76357;SDS011;65185;21.060;105.826;2023-08-07T07:02:38;6.35;;;2.45;;
76357;SDS011;65185;21.060;105.826;2023-08-07T07:05:05;6.70;;;2.35;;
76357;SDS011;65185;21.060;105.826;2023-08-07T07:07:32;7.53;;;2.38;;
76357;SDS011;65185;21.060;105.826;2023-08-07T07:09:59;8.65;;;2.35;;
76357;SDS011;65185;21.060;105.826;2023-08-07T07:12:29;6.30;;;2.38;;
76357;SDS011;65185;21.060;105.826;2023-08-07T07:14:56;6.80;;;2.70;;
76357;SDS011;65185;21.060;105.826;2023-08-07T07:17:23;8.20;;;2.45;;
76357;SDS011;65185;21.060;105.826;2023-08-07T07:19:50;6.10;;;2.30;;
76357;SDS011;65185;21.060;105.826;2023-08-07T07:22:22;7.07;;;2.58;;
76357;SDS011;65185;21.060;105.826;2023-08-07T07:24:49;6.55;;;2.60;;
76357;SDS011;65185;21.060;105.826;2023-08-07T07:27:19;7.20;;;2.90;;
76357;SDS011;65185;21.060;105.826;2023-08-07T07:29:54;6.05;;;2.65;;
76357;SDS011;65185;21.060;105.826;2023-08-07T07:32:21;7.07;;;2.53;;
76357;SDS011;65185;21.060;105.826;2023-08-07T07:34:48;6.93;;;2.70;;
76357;SDS011;65185;21.060;105.826;2023-08-07T07:37:15;6.40;;;2.40;;
76357;SDS011;65185;21.060;105.826;2023-08-07T07:39:42;7.20;;;2.47;;
76357;SDS011;65185;21.060;105.826;2023-08-07T07:42:09;7.78;;;2.78;;
76357;SDS011;65185;21.060;105.826;2023-08-07T07:44:36;9.85;;;2.72;;
76357;SDS011;65185;21.060;105.826;2023-08-07T07:47:05;7.22;;;2.40;;
76357;SDS011;65185;21.060;105.826;2023-08-07T07:49:32;5.68;;;2.38;;
76357;SDS011;65185;21.060;105.826;2023-08-07T07:51:59;5.07;;;2.13;;
76357;SDS011;65185;21.060;105.826;2023-08-07T07:54:27;4.70;;;2.03;;
76357;SDS011;65185;21.060;105.826;2023-08-07T07:56:55;6.32;;;2.30;;
76357;SDS011;65185;21.060;105.826;2023-08-07T07:59:22;5.65;;;2.10;;
76357;SDS011;65185;21.060;105.826;2023-08-07T08:01:49;5.55;;;2.00;;
76357;SDS011;65185;21.060;105.826;2023-08-07T08:04:16;6.13;;;2.00;;
76357;SDS011;65185;21.060;105.826;2023-08-07T08:06:44;5.68;;;2.20;;
76357;SDS011;65185;21.060;105.826;2023-08-07T08:09:13;6.05;;;2.10;;
76357;SDS011;65185;21.060;105.826;2023-08-07T08:11:41;5.13;;;2.10;;
76357;SDS011;65185;21.060;105.826;2023-08-07T08:14:08;6.57;;;2.08;;
76357;SDS011;65185;21.060;105.826;2023-08-07T08:16:35;6.28;;;2.17;;
76357;SDS011;65185;21.060;105.826;2023-08-07T08:19:02;6.45;;;1.88;;
76357;SDS011;65185;21.060;105.826;2023-08-07T08:21:29;9.80;;;2.10;;
76357;SDS011;65185;21.060;105.826;2023-08-07T08:23:56;6.68;;;2.20;;
76357;SDS011;65185;21.060;105.826;2023-08-07T08:26:23;9.13;;;2.47;;
76357;SDS011;65185;21.060;105.826;2023-08-07T08:28:50;4.88;;;2.10;;
76357;SDS011;65185;21.060;105.826;2023-08-07T08:31:17;6.10;;;2.10;;
76357;SDS011;65185;21.060;105.826;2023-08-07T08:33:46;6.43;;;2.00;;
76357;SDS011;65185;21.060;105.826;2023-08-07T08:36:13;6.28;;;1.90;;
76357;SDS011;65185;21.060;105.826;2023-08-07T08:38:43;5.55;;;2.00;;
76357;SDS011;65185;21.060;105.826;2023-08-07T08:41:13;6.68;;;2.28;;
76357;SDS011;65185;21.060;105.826;2023-08-07T08:43:41;6.90;;;1.92;;
76357;SDS011;65185;21.060;105.826;2023-08-07T08:46:11;6.68;;;2.20;;
76357;SDS011;65185;21.060;105.826;2023-08-07T08:48:44;7.30;;;2.10;;
76357;SDS011;65185;21.060;105.826;2023-08-07T08:51:25;5.38;;;1.90;;
76357;SDS011;65185;21.060;105.826;2023-08-07T08:53:56;5.45;;;2.22;;
76357;SDS011;65185;21.060;105.826;2023-08-07T08:56:23;6.50;;;2.00;;
76357;SDS011;65185;21.060;105.826;2023-08-07T08:58:51;8.52;;;1.70;;
76357;SDS011;65185;21.060;105.826;2023-08-07T09:01:18;6.88;;;1.73;;
76357;SDS011;65185;21.060;105.826;2023-08-07T09:03:45;5.68;;;2.13;;
76357;SDS011;65185;21.060;105.826;2023-08-07T09:06:13;7.70;;;1.90;;
76357;SDS011;65185;21.060;105.826;2023-08-07T09:08:40;5.95;;;1.90;;
76357;SDS011;65185;21.060;105.826;2023-08-07T09:11:12;4.97;;;1.70;;
76357;SDS011;65185;21.060;105.826;2023-08-07T09:13:40;5.68;;;1.90;;
76357;SDS011;65185;21.060;105.826;2023-08-07T09:18:36;6.68;;;1.77;;
76357;SDS011;65185;21.060;105.826;2023-08-07T09:21:03;7.57;;;1.88;;
76357;SDS011;65185;21.060;105.826;2023-08-07T09:23:30;4.47;;;1.60;;
76357;SDS011;65185;21.060;105.826;2023-08-07T09:26:00;6.90;;;1.95;;
76357;SDS011;65185;21.060;105.826;2023-08-07T09:28:29;5.38;;;1.65;;
76357;SDS011;65185;21.060;105.826;2023-08-07T09:30:58;9.00;;;2.10;;
76357;SDS011;65185;21.060;105.826;2023-08-07T09:33:27;6.40;;;1.80;;
76357;SDS011;65185;21.060;105.826;2023-08-07T09:35:59;6.80;;;2.08;;
76357;SDS011;65185;21.060;105.826;2023-08-07T09:38:30;11.73;;;2.20;;
76357;SDS011;65185;21.060;105.826;2023-08-07T09:40:58;10.02;;;2.60;;
76357;SDS011;65185;21.060;105.826;2023-08-07T09:43:26;6.13;;;2.10;;
76357;SDS011;65185;21.060;105.826;2023-08-07T09:46:01;6.93;;;2.20;;
76357;SDS011;65185;21.060;105.826;2023-08-07T09:48:29;7.13;;;1.92;;
76357;SDS011;65185;21.060;105.826;2023-08-07T09:51:02;6.63;;;1.80;;
76357;SDS011;65185;21.060;105.826;2023-08-07T09:53:29;8.50;;;2.10;;
76357;SDS011;65185;21.060;105.826;2023-08-07T09:55:57;9.63;;;2.13;;
76357;SDS011;65185;21.060;105.826;2023-08-07T09:58:24;8.27;;;2.30;;
76357;SDS011;65185;21.060;105.826;2023-08-07T10:00:54;9.55;;;2.40;;
76357;SDS011;65185;21.060;105.826;2023-08-07T10:03:27;10.98;;;2.95;;
76357;SDS011;65185;21.060;105.826;2023-08-07T10:05:55;9.85;;;3.00;;
76357;SDS011;65185;21.060;105.826;2023-08-07T10:08:23;8.93;;;2.55;;
76357;SDS011;65185;21.060;105.826;2023-08-07T10:10:51;7.40;;;3.00;;
76357;SDS011;65185;21.060;105.826;2023-08-07T10:13:18;7.47;;;2.60;;
76357;SDS011;65185;21.060;105.826;2023-08-07T10:15:45;9.30;;;3.22;;
76357;SDS011;65185;21.060;105.826;2023-08-07T10:18:13;8.32;;;2.88;;
76357;SDS011;65185;21.060;105.826;2023-08-07T10:20:40;10.23;;;3.10;;
76357;SDS011;65185;21.060;105.826;2023-08-07T10:25:37;9.52;;;2.75;;
76357;SDS011;65185;21.060;105.826;2023-08-07T10:28:08;9.15;;;3.25;;
76357;SDS011;65185;21.060;105.826;2023-08-07T10:30:39;7.80;;;2.85;;
76357;SDS011;65185;21.060;105.826;2023-08-07T10:33:07;8.68;;;3.17;;
76357;SDS011;65185;21.060;105.826;2023-08-07T10:35:36;8.23;;;3.15;;
76357;SDS011;65185;21.060;105.826;2023-08-07T10:38:07;9.80;;;3.40;;
76357;SDS011;65185;21.060;105.826;2023-08-07T10:43:27;9.07;;;3.22;;
76357;SDS011;65185;21.060;105.826;2023-08-07T10:46:14;8.93;;;2.97;;
76357;SDS011;65185;21.060;105.826;2023-08-07T10:48:45;11.20;;;3.40;;
76357;SDS011;65185;21.060;105.826;2023-08-07T10:51:13;8.98;;;3.55;;
76357;SDS011;65185;21.060;105.826;2023-08-07T10:53:42;9.30;;;3.90;;
76357;SDS011;65185;21.060;105.826;2023-08-07T10:56:11;12.52;;;3.83;;
76357;SDS011;65185;21.060;105.826;2023-08-07T10:58:58;8.40;;;3.70;;
76357;SDS011;65185;21.060;105.826;2023-08-07T11:04:00;8.93;;;3.70;;
76357;SDS011;65185;21.060;105.826;2023-08-07T11:06:33;10.15;;;3.70;;
76357;SDS011;65185;21.060;105.826;2023-08-07T11:09:02;9.88;;;3.90;;
76357;SDS011;65185;21.060;105.826;2023-08-07T11:14:15;9.55;;;4.00;;
76357;SDS011;65185;21.060;105.826;2023-08-07T11:16:43;8.63;;;3.92;;
76357;SDS011;65185;21.060;105.826;2023-08-07T11:19:11;10.13;;;3.80;;
76357;SDS011;65185;21.060;105.826;2023-08-07T11:21:41;10.35;;;3.83;;
76357;SDS011;65185;21.060;105.826;2023-08-07T11:24:12;10.63;;;3.90;;
76357;SDS011;65185;21.060;105.826;2023-08-07T11:26:39;9.27;;;4.13;;
76357;SDS011;65185;21.060;105.826;2023-08-07T11:29:22;9.35;;;4.22;;
76357;SDS011;65185;21.060;105.826;2023-08-07T11:31:50;10.10;;;4.75;;
76357;SDS011;65185;21.060;105.826;2023-08-07T11:34:17;12.52;;;4.95;;
76357;SDS011;65185;21.060;105.826;2023-08-07T11:36:45;12.35;;;4.40;;
76357;SDS011;65185;21.060;105.826;2023-08-07T11:39:13;10.02;;;5.10;;
76357;SDS011;65185;21.060;105.826;2023-08-07T11:41:42;11.40;;;5.05;;
76357;SDS011;65185;21.060;105.826;2023-08-07T11:44:10;10.80;;;4.88;;
76357;SDS011;65185;21.060;105.826;2023-08-07T11:46:37;11.13;;;4.88;;
76357;SDS011;65185;21.060;105.826;2023-08-07T11:49:04;10.23;;;4.57;;
76357;SDS011;65185;21.060;105.826;2023-08-07T11:51:31;13.73;;;5.00;;
76357;SDS011;65185;21.060;105.826;2023-08-07T11:53:58;15.65;;;5.03;;
76357;SDS011;65185;21.060;105.826;2023-08-07T11:56:26;12.85;;;5.60;;
76357;SDS011;65185;21.060;105.826;2023-08-07T11:58:53;12.90;;;5.28;;
76357;SDS011;65185;21.060;105.826;2023-08-07T12:01:21;10.23;;;4.63;;
76357;SDS011;65185;21.060;105.826;2023-08-07T12:06:19;9.40;;;4.40;;
76357;SDS011;65185;21.060;105.826;2023-08-07T12:08:47;13.40;;;4.88;;
76357;SDS011;65185;21.060;105.826;2023-08-07T12:11:19;12.60;;;4.97;;
76357;SDS011;65185;21.060;105.826;2023-08-07T12:13:46;10.52;;;4.72;;
76357;SDS011;65185;21.060;105.826;2023-08-07T12:16:14;12.82;;;5.53;;
76357;SDS011;65185;21.060;105.826;2023-08-07T12:18:45;17.08;;;6.25;;
76357;SDS011;65185;21.060;105.826;2023-08-07T12:21:16;12.90;;;6.70;;
76357;SDS011;65185;21.060;105.826;2023-08-07T12:23:51;24.27;;;7.80;;
76357;SDS011;65185;21.060;105.826;2023-08-07T12:26:21;18.38;;;7.03;;
76357;SDS011;65185;21.060;105.826;2023-08-07T12:28:47;14.40;;;6.82;;
76357;SDS011;65185;21.060;105.826;2023-08-07T12:31:15;19.33;;;7.78;;
76357;SDS011;65185;21.060;105.826;2023-08-07T12:33:43;15.35;;;7.18;;
76357;SDS011;65185;21.060;105.826;2023-08-07T12:36:09;18.35;;;6.78;;
76357;SDS011;65185;21.060;105.826;2023-08-07T12:38:38;18.23;;;7.10;;
76357;SDS011;65185;21.060;105.826;2023-08-07T12:41:05;15.85;;;7.03;;
76357;SDS011;65185;21.060;105.826;2023-08-07T12:43:32;16.75;;;6.60;;
76357;SDS011;65185;21.060;105.826;2023-08-07T12:45:59;12.80;;;5.90;;
76357;SDS011;65185;21.060;105.826;2023-08-07T12:48:27;17.55;;;6.45;;
76357;SDS011;65185;21.060;105.826;2023-08-07T12:50:54;13.90;;;6.50;;
76357;SDS011;65185;21.060;105.826;2023-08-07T12:53:21;11.55;;;5.82;;
76357;SDS011;65185;21.060;105.826;2023-08-07T12:55:47;15.93;;;6.70;;
76357;SDS011;65185;21.060;105.826;2023-08-07T12:58:15;16.55;;;6.53;;
76357;SDS011;65185;21.060;105.826;2023-08-07T13:03:10;15.02;;;6.63;;
76357;SDS011;65185;21.060;105.826;2023-08-07T13:05:37;18.00;;;6.82;;
76357;SDS011;65185;21.060;105.826;2023-08-07T13:08:04;14.20;;;6.60;;
76357;SDS011;65185;21.060;105.826;2023-08-07T13:10:30;15.10;;;6.10;;
76357;SDS011;65185;21.060;105.826;2023-08-07T13:12:57;17.23;;;6.35;;
76357;SDS011;65185;21.060;105.826;2023-08-07T13:17:53;14.30;;;5.72;;
76357;SDS011;65185;21.060;105.826;2023-08-07T13:20:19;15.20;;;6.80;;
76357;SDS011;65185;21.060;105.826;2023-08-07T13:22:47;14.60;;;6.20;;
76357;SDS011;65185;21.060;105.826;2023-08-07T13:25:13;13.43;;;6.18;;
76357;SDS011;65185;21.060;105.826;2023-08-07T13:27:41;15.23;;;6.57;;
76357;SDS011;65185;21.060;105.826;2023-08-07T13:30:09;14.82;;;6.75;;
76357;SDS011;65185;21.060;105.826;2023-08-07T13:32:36;15.57;;;6.63;;
76357;SDS011;65185;21.060;105.826;2023-08-07T13:35:03;15.10;;;6.32;;
76357;SDS011;65185;21.060;105.826;2023-08-07T13:37:31;16.02;;;7.32;;
76357;SDS011;65185;21.060;105.826;2023-08-07T13:39:59;15.10;;;6.75;;
76357;SDS011;65185;21.060;105.826;2023-08-07T13:42:26;17.92;;;6.60;;
76357;SDS011;65185;21.060;105.826;2023-08-07T13:44:53;17.40;;;6.90;;
76357;SDS011;65185;21.060;105.826;2023-08-07T13:47:21;15.10;;;6.30;;
76357;SDS011;65185;21.060;105.826;2023-08-07T13:49:51;17.20;;;7.10;;
76357;SDS011;65185;21.060;105.826;2023-08-07T13:52:20;16.98;;;6.32;;
76357;SDS011;65185;21.060;105.826;2023-08-07T13:54:47;19.75;;;6.57;;
76357;SDS011;65185;21.060;105.826;2023-08-07T13:57:14;16.25;;;7.00;;
76357;SDS011;65185;21.060;105.826;2023-08-07T13:59:41;16.10;;;6.43;;
76357;SDS011;65185;21.060;105.826;2023-08-07T14:02:08;22.65;;;6.85;;
76357;SDS011;65185;21.060;105.826;2023-08-07T14:04:35;13.65;;;6.25;;
76357;SDS011;65185;21.060;105.826;2023-08-07T14:07:02;14.95;;;6.93;;
76357;SDS011;65185;21.060;105.826;2023-08-07T14:09:29;16.52;;;6.57;;
76357;SDS011;65185;21.060;105.826;2023-08-07T14:11:56;17.17;;;7.05;;
76357;SDS011;65185;21.060;105.826;2023-08-07T14:14:24;16.67;;;7.65;;
76357;SDS011;65185;21.060;105.826;2023-08-07T14:16:51;16.77;;;6.40;;
76357;SDS011;65185;21.060;105.826;2023-08-07T14:19:19;20.45;;;7.28;;
76357;SDS011;65185;21.060;105.826;2023-08-07T14:21:46;15.27;;;6.72;;
76357;SDS011;65185;21.060;105.826;2023-08-07T14:24:13;15.63;;;6.95;;
76357;SDS011;65185;21.060;105.826;2023-08-07T14:26:42;20.58;;;7.45;;
76357;SDS011;65185;21.060;105.826;2023-08-07T14:29:09;20.30;;;7.38;;
76357;SDS011;65185;21.060;105.826;2023-08-07T14:31:36;17.25;;;7.22;;
76357;SDS011;65185;21.060;105.826;2023-08-07T14:34:03;18.95;;;6.60;;
76357;SDS011;65185;21.060;105.826;2023-08-07T14:36:30;15.55;;;6.88;;
76357;SDS011;65185;21.060;105.826;2023-08-07T14:38:57;18.83;;;7.68;;
76357;SDS011;65185;21.060;105.826;2023-08-07T14:41:24;18.17;;;7.28;;